San Jose, CA (95101)

8:55 PM PDT on August 28, 2015 (GMT -0700)
North San Jose / 680 & Hostetter | | Change Station
CLOSE
Current Station
Personal Weather Station
Location: San Jose, CA
Elevation: 85 ft
Nearby Weather Stations

Elev 85 ft 37.39 °N, 121.88 °W | Updated 32 seconds ago

Scattered Clouds
Scattered Clouds
74.5 °F
Feels Like 77 °F
N
0.0
Wind Variable Wind from NW
Gusts 1.0 mph

Today
High -- | Low -- °F
--% Chance of Precip.
Yesterday
High -- | Low -- °F
Precip. -- in
6:34 AM 7:42 PM
Waxing Gibbous, 99% visible
Pressure 29.89 in
Visibility 10.0 miles
Clouds Few 6000 ft
Scattered Clouds 15000 ft
Heat Index 77 °F
Dew Point 62 °F
Humidity 64%
Rainfall 0.00 in
Snow Depth Not available.
UV 0 out of 12
Pollen 6.70 out of 12
Air Quality Not available.
Flu Activity Not available.
METAR KSJC 290353Z 29008KT 10SM FEW060 SCT150 22/16 A2989 RMK AO2 SLP121 T02220161
Pressure 29.89 in
Visibility 10.0 miles
Clouds Few 6000 ft
Scattered Clouds 15000 ft
Heat Index 77 °F
Dew Point 62 °F
Humidity 64%
Rainfall 0.00 in
Snow Depth Not available.
UV 0 out of 12
Pollen 6.70 out of 12
Air Quality Not available.
Flu Activity Not available.
METAR KSJC 290353Z 29008KT 10SM FEW060 SCT150 22/16 A2989 RMK AO2 SLP121 T02220161

10-Day Weather Forecast

×

Almanac

Astronomy

Aug. 28, 2015 Rise Set
Actual Time
Civil Twilight
Nautical Twilight
Astronomical Twilight
Moon
Length of Visible Light
Length of Day
Tomorrow will be .
, % of the Moon is Illuminated

Today's Extremes

State Highs State Lows

Community

WunderPhotos

Upload Photos

1,850,609 photos uploaded!

WunderBlogs® & News

Nearby

Air Quality

  Air Quality AQ Index Pollutant
Not available.

Snow Depth

Station Depth Elevation

Earthquake Activity

City Distance Mag. Time & Date
Minimum magnitude displayed is 2.5.

Coastal Water Temperatures

Place Temperature

Stations

Nearby Weather Stations

Station Location Temp. Windchill Dew Point Humidity Wind Precip. Elev Updated Type